createdAt,value
2022-12-25T06:32:22.840Z,1001.87
2022-12-25T06:33:25.523Z,1001.86
2022-12-25T06:34:24.658Z,1001.84
2022-12-25T06:35:24.033Z,1001.83
2022-12-25T06:36:24.260Z,1001.81
2022-12-25T06:37:23.834Z,1001.80
2022-12-25T06:38:23.855Z,1001.79
2022-12-25T06:39:23.801Z,1001.77
2022-12-25T06:40:23.808Z,1001.77
2022-12-25T06:41:23.778Z,1001.76
2022-12-25T06:42:23.822Z,1001.75
2022-12-25T06:43:23.739Z,1001.74
2022-12-25T06:44:23.870Z,1001.70
2022-12-25T06:45:23.743Z,1001.66
2022-12-25T06:46:23.817Z,1001.61
2022-12-25T06:47:23.709Z,1001.57
2022-12-25T06:48:23.695Z,1001.54
2022-12-25T06:49:23.678Z,1001.53
2022-12-25T06:50:23.684Z,1001.52
2022-12-25T06:51:23.647Z,1001.51
2022-12-25T06:52:23.659Z,1001.51
2022-12-25T06:53:23.665Z,1001.49
2022-12-25T06:54:23.641Z,1001.47
2022-12-25T06:55:23.628Z,1001.40
2022-12-25T06:56:23.632Z,1001.35
2022-12-25T06:57:23.596Z,1001.30
2022-12-25T06:58:23.602Z,1001.27
2022-12-25T06:59:23.602Z,1001.25
2022-12-25T07:00:23.567Z,1001.22
2022-12-25T07:01:23.822Z,1001.21
2022-12-25T07:02:23.829Z,1001.23
2022-12-25T07:03:23.548Z,1001.27
2022-12-25T07:04:23.516Z,1001.32
2022-12-25T07:05:23.619Z,1001.34
2022-12-25T07:06:23.474Z,1001.36
2022-12-25T07:07:23.425Z,1001.38
2022-12-25T07:08:23.424Z,1001.39
2022-12-25T07:09:23.476Z,1001.39
2022-12-25T07:10:23.463Z,1001.42
2022-12-25T07:11:23.440Z,1001.48
2022-12-25T07:12:23.445Z,1001.56
2022-12-25T07:13:23.409Z,1001.61
2022-12-25T07:14:25.993Z,1001.62
2022-12-25T07:15:23.347Z,1001.57
2022-12-25T07:16:23.409Z,1001.55
2022-12-25T07:17:23.364Z,1001.51
2022-12-25T07:18:23.317Z,1001.49
2022-12-25T07:19:23.312Z,1001.46
2022-12-25T07:20:23.326Z,1001.41
2022-12-25T07:21:23.301Z,1001.34
2022-12-25T07:22:23.271Z,1001.32
2022-12-25T07:23:23.287Z,1001.32
2022-12-25T07:24:23.257Z,1001.32
2022-12-25T07:25:23.253Z,1001.30
2022-12-25T07:26:23.248Z,1001.29
2022-12-25T07:27:23.234Z,1001.29
2022-12-25T07:28:23.352Z,1001.30
2022-12-25T07:29:23.227Z,1001.30
2022-12-25T07:30:23.194Z,1001.29
2022-12-25T07:31:23.210Z,1001.23
2022-12-25T07:32:23.173Z,1001.19
2022-12-25T07:33:23.193Z,1001.14
2022-12-25T07:34:23.156Z,1001.10
2022-12-25T07:35:23.167Z,1001.08
2022-12-25T07:36:23.144Z,1001.07
2022-12-25T07:37:23.127Z,1001.06
2022-12-25T07:38:23.172Z,1001.04
2022-12-25T07:39:23.119Z,1001.02
2022-12-25T07:40:23.095Z,1001.01
2022-12-25T07:41:23.109Z,1001.02
2022-12-25T07:42:25.300Z,1001.04
2022-12-25T07:43:23.078Z,1001.04
2022-12-25T07:44:23.060Z,1001.07
2022-12-25T07:45:23.047Z,1001.09
2022-12-25T07:46:23.227Z,1001.14
2022-12-25T07:47:23.030Z,1001.16
2022-12-25T07:48:23.014Z,1001.19
2022-12-25T07:49:23.044Z,1001.20
2022-12-25T07:50:22.978Z,1001.19
2022-12-25T07:51:23.089Z,1001.18
2022-12-25T07:52:22.983Z,1001.16
2022-12-25T07:53:23.028Z,1001.15
2022-12-25T08:27:56.238Z,1001.12
2022-12-25T08:28:56.981Z,1001.15
2022-12-25T08:29:56.980Z,1001.15
2022-12-25T08:30:57.023Z,1001.15
2022-12-25T08:31:56.970Z,1001.18
2022-12-25T08:32:56.991Z,1001.22
2022-12-25T08:33:56.967Z,1001.28
2022-12-25T08:34:56.912Z,1001.32
2022-12-25T08:35:56.944Z,1001.32
2022-12-25T08:36:56.933Z,1001.29
2022-12-25T08:37:56.911Z,1001.24
2022-12-25T08:39:02.788Z,1001.18
2022-12-25T08:39:57.039Z,1001.12
2022-12-25T08:40:56.948Z,1001.06
2022-12-25T08:41:56.906Z,1001.05
2022-12-25T08:42:56.841Z,1001.08
2022-12-25T08:43:56.852Z,1001.12
2022-12-25T08:44:56.825Z,1001.17
2022-12-25T08:45:56.899Z,1001.23
2022-12-25T08:46:56.791Z,1001.32
2022-12-25T08:47:56.777Z,1001.41
2022-12-25T08:48:56.821Z,1001.47
2022-12-25T08:49:56.742Z,1001.52
2022-12-25T08:50:56.771Z,1001.55
2022-12-25T08:51:56.756Z,1001.57
2022-12-25T08:52:56.728Z,1001.59
2022-12-25T08:53:56.724Z,1001.60
2022-12-25T08:54:56.713Z,1001.61
2022-12-25T08:55:56.718Z,1001.63
2022-12-25T08:57:02.458Z,1001.63
2022-12-25T08:57:56.680Z,1001.64
2022-12-25T08:58:56.665Z,1001.62
2022-12-25T08:59:56.666Z,1001.59
2022-12-25T09:00:56.717Z,1001.54
2022-12-25T09:01:56.849Z,1001.50
2022-12-25T09:02:56.704Z,1001.45
2022-12-25T09:05:19.181Z,1001.35
2022-12-25T09:06:20.126Z,1001.30
2022-12-25T09:07:20.130Z,1001.25
2022-12-25T09:08:20.195Z,1001.20
2022-12-25T09:09:20.064Z,1001.17
2022-12-25T09:10:20.072Z,1001.15
2022-12-25T09:11:20.116Z,1001.14
2022-12-25T09:12:20.118Z,1001.12
2022-12-25T09:13:20.075Z,1001.10
2022-12-25T09:14:20.064Z,1001.07
2022-12-25T09:15:20.587Z,1001.04
2022-12-25T09:16:20.172Z,1001.03
2022-12-25T09:17:20.035Z,1001.02
2022-12-25T09:18:20.028Z,1001.03
2022-12-25T09:19:20.018Z,1001.06
2022-12-25T09:20:20.023Z,1001.10
2022-12-25T09:21:20.021Z,1001.14
2022-12-25T09:22:19.975Z,1001.12
2022-12-25T09:23:19.967Z,1001.10
2022-12-25T09:24:19.975Z,1001.07
2022-12-25T09:25:19.891Z,1001.05
2022-12-25T09:26:19.904Z,1001.01
2022-12-25T09:27:19.900Z,1000.98
2022-12-25T09:28:19.895Z,1000.96
2022-12-25T10:56:42.686Z,1000.62
2022-12-25T10:57:43.586Z,1000.61
2022-12-25T10:58:43.577Z,1000.59
2022-12-25T10:59:43.607Z,1000.58
2022-12-25T11:00:43.519Z,1000.55
2022-12-25T11:01:43.589Z,1000.51
2022-12-25T11:02:43.981Z,1000.47
2022-12-25T11:03:43.548Z,1000.48
2022-12-25T11:04:43.461Z,1000.48
2022-12-25T11:05:43.472Z,1000.46
2022-12-25T11:06:43.471Z,1000.44
2022-12-25T11:07:43.416Z,1000.45
2022-12-25T11:08:43.424Z,1000.45
2022-12-25T11:09:43.404Z,1000.45
2022-12-25T11:10:43.409Z,1000.44
2022-12-25T11:11:43.388Z,1000.42
2022-12-25T11:12:43.383Z,1000.36
2022-12-25T11:13:43.360Z,1000.27
2022-12-25T11:14:43.363Z,1000.17
2022-12-25T11:15:43.442Z,1000.14
2022-12-25T11:16:43.550Z,1000.16
2022-12-25T11:17:43.408Z,1000.21
2022-12-25T11:18:43.376Z,1000.23
2022-12-25T11:19:44.432Z,1000.21
2022-12-25T11:20:47.085Z,1000.21
2022-12-25T11:21:43.336Z,1000.22
2022-12-25T11:22:43.266Z,1000.22
2022-12-25T11:23:43.295Z,1000.24
2022-12-25T11:24:43.253Z,1000.24
2022-12-25T11:25:43.234Z,1000.22
2022-12-25T11:26:43.225Z,1000.16
2022-12-25T11:27:43.252Z,1000.09
2022-12-25T11:28:43.207Z,1000.03
2022-12-25T11:29:43.197Z,999.98
2022-12-25T11:30:43.611Z,999.95
2022-12-25T11:35:34.447Z,999.82
2022-12-25T11:36:35.268Z,999.78
2022-12-25T11:37:35.367Z,999.74
2022-12-25T11:38:35.235Z,999.69
2022-12-25T11:39:35.219Z,999.62
2022-12-25T11:40:35.233Z,999.59
2022-12-25T11:41:35.224Z,999.57
2022-12-25T11:42:35.178Z,999.55
2022-12-25T11:43:35.227Z,999.54
2022-12-25T11:44:35.189Z,999.54
2022-12-25T11:45:35.177Z,999.54
2022-12-25T11:46:35.238Z,999.55
2022-12-25T11:47:35.453Z,999.55
2022-12-25T12:01:15.515Z,999.65
2022-12-25T12:02:04.126Z,999.63
2022-12-25T12:03:04.078Z,999.61
2022-12-25T12:04:04.088Z,999.57
2022-12-25T12:05:03.937Z,999.55
2022-12-25T12:06:03.905Z,999.55
2022-12-25T12:07:03.975Z,999.55
2022-12-25T12:08:04.341Z,999.54
2022-12-25T12:09:03.900Z,999.49
2022-12-25T12:10:03.868Z,999.42
2022-12-25T12:11:03.915Z,999.35
2022-12-25T12:12:03.874Z,999.32
2022-12-25T12:13:03.859Z,999.32
2022-12-25T12:14:03.908Z,999.32
2022-12-25T12:15:04.057Z,999.27
2022-12-25T12:16:03.863Z,999.19
2022-12-25T12:17:03.826Z,999.11
2022-12-25T12:18:03.929Z,999.05
2022-12-25T12:19:03.792Z,999.01
2022-12-25T12:20:03.844Z,998.99
2022-12-25T12:21:03.754Z,998.98
2022-12-25T12:22:03.900Z,998.96
2022-12-25T12:23:03.760Z,998.93
2022-12-25T12:24:03.722Z,998.93
2022-12-25T12:25:03.732Z,998.95
2022-12-25T12:26:03.700Z,998.95
2022-12-25T12:27:03.700Z,998.93
2022-12-25T12:28:05.857Z,998.92
2022-12-25T12:29:03.695Z,998.89
2022-12-25T12:30:03.725Z,998.86
2022-12-25T12:31:03.677Z,998.83
2022-12-25T12:32:03.724Z,998.80
2022-12-25T12:33:03.689Z,998.80
2022-12-25T12:34:03.604Z,998.79
2022-12-25T12:35:03.637Z,998.78
2022-12-25T12:36:03.614Z,998.79
2022-12-25T12:37:03.592Z,998.79
2022-12-25T12:38:03.609Z,998.80
2022-12-25T12:39:03.593Z,998.82
2022-12-25T12:40:03.564Z,998.84
2022-12-25T12:41:03.587Z,998.80
2022-12-25T12:42:03.543Z,998.75
2022-12-25T12:43:03.573Z,998.73
2022-12-25T12:44:03.546Z,998.72
2022-12-25T12:45:03.561Z,998.74
2022-12-25T12:46:03.589Z,998.75
2022-12-25T12:47:03.542Z,998.76
2022-12-25T12:48:03.486Z,998.76
2022-12-25T12:49:03.540Z,998.74
2022-12-25T12:50:03.459Z,998.72
2022-12-25T12:51:03.462Z,998.69
2022-12-25T12:52:03.461Z,998.63
2022-12-25T12:53:03.453Z,998.59
2022-12-25T12:54:03.408Z,998.55
2022-12-25T12:55:03.448Z,998.51
2022-12-25T12:56:03.410Z,998.48
2022-12-25T12:57:03.392Z,998.47
2022-12-25T12:58:03.387Z,998.46
2022-12-25T12:59:03.382Z,998.46
2022-12-25T13:00:10.421Z,998.46
2022-12-25T13:01:03.447Z,998.47
2022-12-25T13:02:03.643Z,998.48
2022-12-25T13:03:03.467Z,998.48
2022-12-25T13:04:03.294Z,998.47
2022-12-25T13:05:03.344Z,998.45
2022-12-25T13:06:03.333Z,998.44
2022-12-25T13:07:03.285Z,998.45
2022-12-25T13:08:03.282Z,998.46
2022-12-25T13:09:03.275Z,998.46
2022-12-25T13:10:03.264Z,998.44
2022-12-25T13:11:03.254Z,998.41
2022-12-25T13:12:03.242Z,998.38
2022-12-25T13:13:03.238Z,998.37
2022-12-25T13:14:03.216Z,998.36
2022-12-25T13:15:03.205Z,998.37
2022-12-25T13:16:03.257Z,998.38
2022-12-25T13:17:03.220Z,998.40
2022-12-25T13:18:03.164Z,998.41
2022-12-25T13:19:03.167Z,998.40
2022-12-25T13:20:03.146Z,998.38
2022-12-25T13:21:03.150Z,998.38
2022-12-25T13:22:03.152Z,998.39
2022-12-25T13:23:03.115Z,998.40
2022-12-25T13:24:03.102Z,998.40
2022-12-25T13:25:03.095Z,998.39
2022-12-25T13:26:03.085Z,998.36
2022-12-25T13:27:03.085Z,998.35
2022-12-25T13:28:03.080Z,998.34
2022-12-25T13:29:09.490Z,998.34
2022-12-25T13:30:03.082Z,998.31
2022-12-25T13:31:03.060Z,998.27
2022-12-25T13:32:03.077Z,998.25
2022-12-25T13:33:03.049Z,998.24
2022-12-25T13:34:03.047Z,998.23
2022-12-25T13:35:03.003Z,998.23
2022-12-25T13:36:02.993Z,998.23
2022-12-25T13:37:02.970Z,998.23
2022-12-25T13:38:02.969Z,998.22
2022-12-25T13:39:02.973Z,998.20
2022-12-25T13:40:02.934Z,998.16
2022-12-25T13:41:02.942Z,998.12
2022-12-25T13:42:02.900Z,998.08
2022-12-25T13:43:02.909Z,998.09
2022-12-25T13:44:02.913Z,998.08
2022-12-25T13:45:02.893Z,998.09
2022-12-25T13:46:02.966Z,998.11
2022-12-25T13:47:02.878Z,998.11
2022-12-25T13:48:02.867Z,998.09
2022-12-25T13:49:02.846Z,998.04
2022-12-25T13:50:02.830Z,997.98
2022-12-25T13:51:02.842Z,997.94
2022-12-25T13:52:02.830Z,997.92
2022-12-25T13:53:02.820Z,997.91
2022-12-25T13:54:02.782Z,997.93
2022-12-25T13:55:02.801Z,997.94
2022-12-25T13:56:02.780Z,997.94
2022-12-25T13:57:02.769Z,997.94
2022-12-25T13:58:02.728Z,997.93
2022-12-25T13:59:02.748Z,997.93
2022-12-25T14:00:02.751Z,997.93
2022-12-25T14:01:02.786Z,997.94
2022-12-25T14:02:02.890Z,997.97
2022-12-25T14:03:02.773Z,997.98
2022-12-25T14:04:02.672Z,997.99
2022-12-25T14:05:02.693Z,997.99
2022-12-25T14:06:02.658Z,998.01
2022-12-25T14:07:02.650Z,998.04
2022-12-25T14:08:02.675Z,998.05
2022-12-25T14:09:02.631Z,998.05
2022-12-25T14:10:02.665Z,998.03
2022-12-25T14:11:02.622Z,998.02
2022-12-25T14:12:02.623Z,998.03
2022-12-25T14:13:02.589Z,998.03
2022-12-25T14:14:02.606Z,998.05
2022-12-25T14:15:02.588Z,998.05
2022-12-25T14:16:02.557Z,998.04
2022-12-25T14:17:02.610Z,998.01
2022-12-25T14:18:02.549Z,997.97
2022-12-25T14:19:02.556Z,997.96
2022-12-25T14:20:08.312Z,997.96
2022-12-25T14:21:02.573Z,997.97
2022-12-25T14:22:02.487Z,997.97
2022-12-25T14:23:02.481Z,997.97
2022-12-25T14:24:02.483Z,997.97
2022-12-25T14:25:02.460Z,997.95
2022-12-25T14:26:02.492Z,997.95
2022-12-25T14:27:02.441Z,997.95
2022-12-25T14:28:02.430Z,997.93
2022-12-25T14:29:02.423Z,997.89
2022-12-25T14:30:02.425Z,997.86
2022-12-25T14:31:02.522Z,997.84
2022-12-25T14:32:02.414Z,997.83
2022-12-25T14:33:02.370Z,997.81
2022-12-25T14:34:02.376Z,997.79
2022-12-25T14:35:02.380Z,997.76
2022-12-25T14:36:02.350Z,997.74
2022-12-25T14:37:02.360Z,997.72
2022-12-25T14:38:02.355Z,997.71
2022-12-25T14:39:02.306Z,997.72
2022-12-25T14:40:02.313Z,997.72
2022-12-25T14:41:02.310Z,997.71
2022-12-25T14:42:02.299Z,997.69
2022-12-25T14:43:02.311Z,997.67
2022-12-25T14:44:02.294Z,997.66
2022-12-25T14:45:02.292Z,997.65
2022-12-25T14:46:02.341Z,997.62
2022-12-25T14:47:02.232Z,997.60
2022-12-25T14:48:02.226Z,997.60
2022-12-25T14:49:02.213Z,997.62
2022-12-25T14:50:02.209Z,997.63
2022-12-25T14:51:02.195Z,997.64
2022-12-25T14:52:02.175Z,997.64
2022-12-25T14:53:02.159Z,997.64
2022-12-25T14:54:02.163Z,997.61
2022-12-25T14:55:02.179Z,997.59
2022-12-25T14:56:02.151Z,997.57
2022-12-25T14:57:02.150Z,997.57
2022-12-25T14:58:02.116Z,997.55
2022-12-25T14:59:02.130Z,997.51
2022-12-25T15:00:02.138Z,997.50
2022-12-25T15:01:02.136Z,997.52
2022-12-25T15:02:02.271Z,997.53
2022-12-25T15:03:02.132Z,997.52
2022-12-25T15:04:02.215Z,997.48
2022-12-25T15:05:02.054Z,997.43
2022-12-25T15:06:02.072Z,997.38
2022-12-25T15:07:02.038Z,997.40
2022-12-25T15:08:02.017Z,997.41
2022-12-25T15:09:02.014Z,997.41
2022-12-25T15:10:47.120Z,997.38
2022-12-25T15:11:03.854Z,997.35
2022-12-25T15:12:01.988Z,997.36
2022-12-25T15:13:01.961Z,997.36
2022-12-25T15:14:01.962Z,997.36
2022-12-25T15:15:01.964Z,997.35
2022-12-25T15:16:02.019Z,997.34
2022-12-25T15:17:01.903Z,997.34
2022-12-25T15:18:01.897Z,997.36
2022-12-25T15:19:01.917Z,997.39
2022-12-25T15:20:02.022Z,997.39
2022-12-25T15:21:01.870Z,997.36
2022-12-25T15:22:01.886Z,997.33
2022-12-25T15:23:19.276Z,997.32
2022-12-25T15:24:01.859Z,997.31
2022-12-25T15:25:02.843Z,997.29
2022-12-25T15:26:01.870Z,997.29
2022-12-25T15:27:01.842Z,997.31
2022-12-25T15:28:01.839Z,997.32
2022-12-25T15:29:01.771Z,997.32
2022-12-25T15:30:10.644Z,997.34
2022-12-25T15:31:01.831Z,997.37
2022-12-25T15:32:01.762Z,997.39
2022-12-25T15:33:01.743Z,997.36
2022-12-25T15:34:01.756Z,997.30
2022-12-25T15:35:01.727Z,997.26
2022-12-25T15:36:01.737Z,997.28
2022-12-25T15:37:01.714Z,997.30
2022-12-25T15:38:01.714Z,997.28
2022-12-25T15:39:01.708Z,997.25
2022-12-25T15:40:02.324Z,997.20
2022-12-25T15:41:01.666Z,997.19
2022-12-25T15:42:01.685Z,997.19
2022-12-25T15:43:06.436Z,997.18
2022-12-25T15:44:01.683Z,997.17
2022-12-25T15:45:01.607Z,997.16
2022-12-25T15:46:01.665Z,997.17
2022-12-25T15:47:01.625Z,997.16
2022-12-25T15:48:01.665Z,997.15
2022-12-25T15:49:01.693Z,997.14
2022-12-25T15:50:01.831Z,997.12
2022-12-25T15:51:01.629Z,997.10
2022-12-25T15:52:01.632Z,997.08
2022-12-25T15:53:01.596Z,997.06
2022-12-25T15:54:01.619Z,997.04
2022-12-25T15:55:01.553Z,997.02
2022-12-25T15:56:01.588Z,997.03
2022-12-25T15:57:01.557Z,997.02
2022-12-25T15:58:01.552Z,996.99
2022-12-25T15:59:01.537Z,996.96
2022-12-25T16:00:01.722Z,997.00
2022-12-25T16:01:01.504Z,997.06
2022-12-25T16:02:01.674Z,997.09
2022-12-25T16:03:01.682Z,997.11
2022-12-25T16:04:01.492Z,997.10
2022-12-25T16:05:06.888Z,997.10
2022-12-25T16:06:01.465Z,997.12
2022-12-25T16:07:01.466Z,997.10
2022-12-25T16:08:01.456Z,997.08
2022-12-25T16:09:01.440Z,997.07
2022-12-25T16:10:01.522Z,997.07
2022-12-25T16:11:01.416Z,997.07
2022-12-25T16:12:01.397Z,997.07
2022-12-25T16:13:01.379Z,997.08
2022-12-25T16:14:01.378Z,997.07
2022-12-25T16:15:01.357Z,997.07
2022-12-25T16:16:01.432Z,997.04
2022-12-25T16:17:01.364Z,997.03
2022-12-25T16:18:01.328Z,997.04
2022-12-25T16:19:01.325Z,997.05
2022-12-25T16:20:01.314Z,997.03
2022-12-25T16:21:01.326Z,997.02
2022-12-25T16:22:01.301Z,997.03
2022-12-25T16:23:01.275Z,997.03
2022-12-25T16:24:01.281Z,997.00
2022-12-25T16:25:01.263Z,996.98
2022-12-25T16:26:01.246Z,996.97
2022-12-25T16:27:01.236Z,996.97
2022-12-25T16:28:01.228Z,996.96
2022-12-25T16:29:06.804Z,996.97
2022-12-25T16:30:01.233Z,996.97
2022-12-25T16:31:01.269Z,996.96
2022-12-25T16:32:01.179Z,996.95
2022-12-25T16:33:01.230Z,996.92
2022-12-25T16:34:01.208Z,996.89
2022-12-25T16:35:01.166Z,996.89
2022-12-25T16:36:01.148Z,996.88
2022-12-25T16:37:01.166Z,996.87
2022-12-25T16:38:12.289Z,996.86
2022-12-25T16:39:01.135Z,996.85
2022-12-25T16:40:01.156Z,996.87
2022-12-25T16:41:01.264Z,996.89
2022-12-25T16:42:01.592Z,996.88
2022-12-25T16:43:01.105Z,996.86
2022-12-25T16:44:01.273Z,996.84
2022-12-25T16:45:01.052Z,996.82
2022-12-25T16:46:01.285Z,996.80
2022-12-25T16:47:10.552Z,996.78
2022-12-25T16:48:01.016Z,996.78
2022-12-25T16:49:01.017Z,996.80
2022-12-25T16:50:01.015Z,996.81
2022-12-25T16:51:00.967Z,996.83
2022-12-25T16:52:00.986Z,996.83
2022-12-25T16:53:00.951Z,996.83
2022-12-25T16:54:00.987Z,996.85
2022-12-25T16:55:00.971Z,996.83
2022-12-25T16:56:00.994Z,996.82
2022-12-25T16:57:00.911Z,996.79
2022-12-25T16:58:00.930Z,996.77
2022-12-25T16:59:00.899Z,996.76
2022-12-25T17:00:00.915Z,996.76
2022-12-25T17:01:00.872Z,996.73
2022-12-25T17:02:01.000Z,996.71
2022-12-25T17:03:01.238Z,996.71
2022-12-25T17:04:00.954Z,996.71
2022-12-25T17:05:00.855Z,996.71
2022-12-25T17:06:00.825Z,996.70
2022-12-25T17:07:00.809Z,996.69
2022-12-25T17:08:00.815Z,996.68
2022-12-25T17:09:00.799Z,996.67
2022-12-25T17:10:00.810Z,996.65
2022-12-25T17:11:00.777Z,996.65
2022-12-25T17:12:00.788Z,996.65
2022-12-25T17:13:00.766Z,996.65
2022-12-25T17:14:00.746Z,996.63
2022-12-25T17:15:00.882Z,996.61
2022-12-25T17:16:00.785Z,996.61
2022-12-25T17:17:00.717Z,996.60
2022-12-25T17:18:00.734Z,996.59
2022-12-25T17:19:00.747Z,996.59
2022-12-25T17:20:00.696Z,996.56
2022-12-25T17:21:00.669Z,996.56
2022-12-25T17:22:00.673Z,996.53
2022-12-25T17:23:00.675Z,996.51
2022-12-25T17:24:03.573Z,996.49
2022-12-25T17:25:00.674Z,996.49
2022-12-25T17:26:00.681Z,996.50
2022-12-25T17:27:00.636Z,996.51
2022-12-25T17:28:00.587Z,996.52
2022-12-25T17:29:00.636Z,996.52
2022-12-25T17:30:00.588Z,996.53
2022-12-25T17:31:00.625Z,996.53
2022-12-25T17:32:00.695Z,996.53
2022-12-25T17:33:00.540Z,996.55
2022-12-25T17:34:00.551Z,996.54
2022-12-25T17:35:00.583Z,996.53
2022-12-25T17:36:03.880Z,996.51
2022-12-25T17:37:00.623Z,996.49
2022-12-25T17:38:00.514Z,996.48
2022-12-25T17:39:00.470Z,996.48
2022-12-25T17:40:00.493Z,996.50
2022-12-25T17:41:00.444Z,996.50
2022-12-25T17:42:00.475Z,996.48
2022-12-25T17:43:00.455Z,996.48
2022-12-25T17:44:00.435Z,996.48
2022-12-25T17:45:00.409Z,996.48
2022-12-25T17:46:00.420Z,996.48
2022-12-25T17:47:00.537Z,996.46
2022-12-25T17:48:00.398Z,996.44
2022-12-25T17:49:00.371Z,996.44
2022-12-25T17:50:00.912Z,996.45
2022-12-25T17:52:50.888Z,996.47
2022-12-25T17:53:51.980Z,996.46
2022-12-25T17:54:52.008Z,996.43
2022-12-25T17:55:51.846Z,996.41
2022-12-25T17:56:51.812Z,996.37
2022-12-25T17:57:51.827Z,996.38
2022-12-25T17:58:51.796Z,996.40
2022-12-25T17:59:51.802Z,996.40
2022-12-25T18:00:51.784Z,996.39
2022-12-25T18:01:51.891Z,996.42
2022-12-25T18:02:51.840Z,996.41
2022-12-25T18:03:51.856Z,996.43
2022-12-25T18:04:51.759Z,996.44
2022-12-25T18:05:51.731Z,996.46
2022-12-25T18:06:51.700Z,996.46
2022-12-25T18:07:51.712Z,996.48
2022-12-25T18:08:51.764Z,996.50
2022-12-25T18:09:51.698Z,996.50
2022-12-25T18:10:51.744Z,996.50
2022-12-25T18:11:51.672Z,996.50
2022-12-25T18:12:51.657Z,996.50
2022-12-25T18:13:51.658Z,996.50
2022-12-25T18:14:51.639Z,996.50
2022-12-25T18:15:51.758Z,996.49
2022-12-25T18:16:51.761Z,996.46
2022-12-25T18:17:51.607Z,996.46
2022-12-25T18:18:52.914Z,996.47
2022-12-25T18:19:52.237Z,996.44
2022-12-25T18:20:51.575Z,996.44
2022-12-25T18:21:51.595Z,996.41
2022-12-25T18:22:51.709Z,996.40
2022-12-25T18:23:51.616Z,996.38
2022-12-25T18:24:51.531Z,996.36
2022-12-25T18:25:51.777Z,996.35
2022-12-25T18:26:51.566Z,996.35
2022-12-25T18:27:51.486Z,996.34
2022-12-25T18:28:51.479Z,996.34
2022-12-25T18:29:51.494Z,996.34
2022-12-25T18:30:51.462Z,996.33
2022-12-25T18:31:51.588Z,996.32
2022-12-25T18:32:51.466Z,996.32
2022-12-25T18:33:51.460Z,996.33
2022-12-25T18:34:51.492Z,996.35
2022-12-25T18:35:51.419Z,996.36
2022-12-25T18:36:51.431Z,996.35
2022-12-25T18:37:51.406Z,996.34
2022-12-25T18:38:51.397Z,996.33
2022-12-25T18:39:51.376Z,996.33
2022-12-25T18:40:51.357Z,996.35
2022-12-25T18:41:51.346Z,996.36
2022-12-25T18:42:52.913Z,996.39
2022-12-25T18:43:55.229Z,996.40
2022-12-25T18:44:51.342Z,996.39
2022-12-25T18:45:51.400Z,996.39
2022-12-25T18:46:51.282Z,996.37
2022-12-25T18:47:51.362Z,996.36
2022-12-25T18:48:51.265Z,996.34
2022-12-25T18:49:51.262Z,996.32
2022-12-25T18:50:51.264Z,996.30
2022-12-25T18:51:52.257Z,996.30
2022-12-25T18:52:52.046Z,996.31
2022-12-25T18:53:51.416Z,996.27
2022-12-25T18:54:51.214Z,996.25
2022-12-25T18:55:51.212Z,996.22
2022-12-25T18:56:53.354Z,996.23
2022-12-25T18:57:51.257Z,996.22
2022-12-25T18:58:51.153Z,996.21
2022-12-25T18:59:51.331Z,996.19
2022-12-25T19:00:51.189Z,996.19
2022-12-25T19:01:51.377Z,996.18
2022-12-25T19:02:51.387Z,996.16
2022-12-25T19:03:51.134Z,996.16
2022-12-25T19:04:51.113Z,996.17
2022-12-25T19:05:51.246Z,996.16
2022-12-25T19:06:51.109Z,996.15
2022-12-25T19:07:51.107Z,996.18
2022-12-25T19:08:51.181Z,996.19
2022-12-25T19:09:51.236Z,996.20
2022-12-25T19:10:51.132Z,996.18
2022-12-25T19:11:51.038Z,996.18
2022-12-25T19:12:51.060Z,996.19
2022-12-25T19:13:51.019Z,996.17
2022-12-25T19:14:51.839Z,996.16
2022-12-25T19:15:51.021Z,996.20
2022-12-25T19:16:51.139Z,996.24
2022-12-25T19:17:50.968Z,996.24
2022-12-25T19:18:51.062Z,996.23
2022-12-25T19:19:50.979Z,996.22
2022-12-25T19:20:51.010Z,996.22
2022-12-25T19:21:51.060Z,996.16
2022-12-25T19:22:50.937Z,996.19
2022-12-25T19:23:50.930Z,996.17
2022-12-25T19:24:50.918Z,996.18
2022-12-25T19:25:50.998Z,996.20
2022-12-25T19:26:50.926Z,996.22
2022-12-25T19:27:50.879Z,996.26
2022-12-25T19:28:50.973Z,996.22
2022-12-25T19:29:50.866Z,996.22
2022-12-25T19:30:50.839Z,996.19
2022-12-25T19:31:50.910Z,996.15
2022-12-25T19:32:50.881Z,996.21
2022-12-25T19:33:50.810Z,996.24
2022-12-25T19:34:50.839Z,996.29
2022-12-25T19:35:50.777Z,996.27
2022-12-25T19:36:50.819Z,996.26
2022-12-25T19:37:50.805Z,996.24
2022-12-25T19:38:50.737Z,996.21
2022-12-25T19:39:50.842Z,996.21
2022-12-25T19:40:51.229Z,996.22
2022-12-25T19:41:50.765Z,996.23
2022-12-25T19:42:50.663Z,996.24
2022-12-25T19:43:50.889Z,996.26
2022-12-25T19:44:50.692Z,996.20
2022-12-25T19:45:50.779Z,996.20
2022-12-25T19:46:50.704Z,996.18
2022-12-25T19:47:50.673Z,996.18
2022-12-25T19:48:50.656Z,996.24
2022-12-25T19:49:53.181Z,996.27
2022-12-25T19:50:50.608Z,996.29
2022-12-25T19:51:50.615Z,996.24
2022-12-25T19:52:50.665Z,996.19
2022-12-25T19:53:50.657Z,996.19
2022-12-25T19:54:50.592Z,996.21
2022-12-25T19:55:50.575Z,996.28
2022-12-25T19:56:50.570Z,996.35
2022-12-25T19:57:50.634Z,996.35
2022-12-25T19:58:50.554Z,996.33
2022-12-25T19:59:50.550Z,996.32
2022-12-25T20:00:50.526Z,996.29
2022-12-25T20:01:50.700Z,996.23
2022-12-25T20:02:50.624Z,996.27
2022-12-25T20:03:50.454Z,996.24
2022-12-25T20:04:50.438Z,996.28
2022-12-25T20:05:50.459Z,996.25
2022-12-25T20:06:50.480Z,996.33
2022-12-25T20:07:50.449Z,996.39
2022-12-25T20:08:50.435Z,996.40
2022-12-25T20:09:50.455Z,996.36
2022-12-25T20:10:50.468Z,996.38
2022-12-25T20:11:50.459Z,996.40
2022-12-25T20:12:50.431Z,996.40
2022-12-25T20:13:50.377Z,996.41
2022-12-25T20:15:01.516Z,996.39
2022-12-25T20:15:50.412Z,996.43
2022-12-25T20:16:50.512Z,996.46
2022-12-25T20:17:51.392Z,996.46
2022-12-25T20:18:51.182Z,996.45
2022-12-25T20:19:50.336Z,996.43
2022-12-25T20:20:50.432Z,996.39
2022-12-25T20:21:50.281Z,996.41
2022-12-25T20:22:51.352Z,996.44
2022-12-25T20:23:51.680Z,996.45
2022-12-25T20:24:50.507Z,996.43
2022-12-25T20:25:50.782Z,996.45
2022-12-25T20:26:58.829Z,996.45
2022-12-25T20:27:51.446Z,996.43
2022-12-25T20:28:50.237Z,996.41
2022-12-25T20:29:50.216Z,996.40
2022-12-25T20:30:50.222Z,996.37
2022-12-25T20:31:50.381Z,996.43
2022-12-25T20:32:50.842Z,996.45
2022-12-25T20:33:50.177Z,996.47
2022-12-25T20:34:50.179Z,996.48
2022-12-25T20:35:50.136Z,996.45
2022-12-25T20:36:50.156Z,996.41
2022-12-25T20:37:50.130Z,996.39
2022-12-25T20:38:50.137Z,996.36
2022-12-25T20:39:50.099Z,996.38
2022-12-25T20:41:25.183Z,996.42
2022-12-25T20:41:50.107Z,996.44
2022-12-25T20:42:50.123Z,996.45
2022-12-25T20:43:50.060Z,996.46
2022-12-25T20:44:50.080Z,996.47
2022-12-25T20:45:50.147Z,996.48
2022-12-25T20:46:50.048Z,996.54
2022-12-25T20:47:50.009Z,996.53
2022-12-25T20:48:50.039Z,996.56
2022-12-25T20:49:49.994Z,996.55
2022-12-25T20:50:50.031Z,996.54
2022-12-25T20:51:49.965Z,996.58
2022-12-25T20:52:50.099Z,996.57
2022-12-25T20:53:49.952Z,996.51
2022-12-25T20:54:49.951Z,996.53
2022-12-25T20:55:49.961Z,996.60
2022-12-25T20:56:49.959Z,996.66
2022-12-25T20:57:50.052Z,996.63
2022-12-25T20:58:50.036Z,996.67
2022-12-25T20:59:49.918Z,996.70
2022-12-25T21:00:50.076Z,996.76
2022-12-25T21:04:23.176Z,996.74
2022-12-25T21:05:24.390Z,996.72
2022-12-25T21:09:46.473Z,996.68
2022-12-25T21:10:47.837Z,996.66
2022-12-25T21:14:22.266Z,996.78
2022-12-25T21:15:23.329Z,996.76
2022-12-25T21:16:23.161Z,996.71
2022-12-25T21:17:23.189Z,996.72
2022-12-25T21:18:23.101Z,996.74
2022-12-25T21:19:23.123Z,996.73
2022-12-25T21:20:23.085Z,996.77
2022-12-25T21:21:23.226Z,996.80
2022-12-25T21:22:23.063Z,996.79
2022-12-25T21:23:23.609Z,996.77
2022-12-25T21:24:23.042Z,996.74